Cima De Oro — EEIW — position and weather

sailwx.info

Track history (hours):
 
Tides and Currents Weather Stations Pressure Air Temp Water Temp Dewpoint Dewpoint Depression Visibility Wind Speed Wind Dir Waves Ship Positions

Cima De Oro

Last reported at 2017-Sep-07 20:36 UTC. Time now 2017-Sep-20 18:28 UTC.
Position N 27°51' W 015°06'.
Warning: this ship's position is 12 days out of date.

Length 32 m; draft 3.3 m.

Type: Fishing. MMSI: 224074180.

Date/timePositionNaut miles runAvg speedWind from/ knotsBaromVisibWave heightAir tempDewpointWater temp
2017-Sep-07 20:36N 27°51' W 015°06'0 5.3
2017-Sep-07 20:30N 27°50' W 015°06'3 5.5
2017-Sep-07 20:00N 27°49' W 015°09'2 3.4
2017-Sep-07 19:29N 27°48' W 015°11'3 5.2
2017-Sep-07 18:55N 27°46' W 015°13'2 5.5
2017-Sep-07 18:28N 27°45' W 015°16'26 0.6
2017-Sep-05 22:57N 27°42' W 015°45'1 1.1
2017-Sep-05 22:13N 27°41' W 015°44'0 1.1
2017-Sep-05 21:59N 27°41' W 015°44'3 0.8
2017-Sep-05 18:16N 27°43' W 015°42'20 6.2
2017-Sep-05 15:03N 27°51' W 015°21'110.5
2017-Sep-05 15:00N 27°51' W 015°20'5 9.9
2017-Sep-05 14:30N 27°54' W 015°16'5 9.3
2017-Sep-05 14:00N 27°57' W 015°12'5 9.0
2017-Sep-05 13:30N 27°60' W 015°08'5 9.0
2017-Sep-05 13:00N 28°03' W 015°04'4 8.8
2017-Sep-05 12:30N 28°05' W 014°60'4 8.7
2017-Sep-05 12:00N 28°08' W 014°56'5 8.9
2017-Sep-05 11:30N 28°11' W 014°52'4 9.0
2017-Sep-05 11:00N 28°13' W 014°48'4 8.9
2017-Sep-05 10:30N 28°16' W 014°44'5 9.2
2017-Sep-05 10:00N 28°19' W 014°40'5 9.2
2017-Sep-05 09:30N 28°22' W 014°36'5 8.8
2017-Sep-05 08:58N 28°25' W 014°31'4 8.6
2017-Sep-05 08:27N 28°27' W 014°27'4 8.8
2017-Sep-05 08:00N 28°30' W 014°24'4 8.6
2017-Sep-05 07:30N 28°32' W 014°20'4 8.7
2017-Sep-05 07:00N 28°35' W 014°16'5 9.0
2017-Sep-05 06:29N 28°38' W 014°12'4 9.2
2017-Sep-05 06:00N 28°41' W 014°08'5 9.4
2017-Sep-05 05:30N 28°43' W 014°03'5 9.8
2017-Sep-05 05:01N 28°46' W 013°59'5 9.7
2017-Sep-05 04:30N 28°48' W 013°54'5 9.3
2017-Sep-05 04:00N 28°49' W 013°49'5 9.3
2017-Sep-05 03:30N 28°51' W 013°44'5 9.4
2017-Sep-05 03:00N 28°53' W 013°39'2 4.1
2017-Sep-05 02:30N 28°54' W 013°37'0 0.0
2017-Sep-05 02:00N 28°54' W 013°37'0 0.0
2017-Sep-05 01:30N 28°54' W 013°37'0 0.1
2017-Sep-05 01:00N 28°54' W 013°37'0 0.0
2017-Sep-05 00:30N 28°54' W 013°37'0 0.0
2017-Sep-05 00:00N 28°54' W 013°37'0 0.0
2017-Sep-04 23:30N 28°54' W 013°37'0 0.0
2017-Sep-04 23:00N 28°54' W 013°37'0 0.0
2017-Sep-04 22:30N 28°54' W 013°37'0 0.0
2017-Sep-04 22:00N 28°54' W 013°37'0 0.0
2017-Sep-04 21:30N 28°54' W 013°37'0 0.0
2017-Sep-04 21:00N 28°54' W 013°37'0 0.3
2017-Sep-04 20:31N 28°54' W 013°37'0 0.2
2017-Sep-04 20:00N 28°54' W 013°37'3 6.1
2017-Sep-04 19:30N 28°56' W 013°34'3 5.0
2017-Sep-04 19:01N 28°58' W 013°32'0 0.0
2017-Sep-04 18:30N 28°58' W 013°32'0 0.0
2017-Sep-04 18:01N 28°58' W 013°32'0 0.0
2017-Sep-04 17:30N 28°58' W 013°32'0 0.0
2017-Sep-04 17:01N 28°58' W 013°32'0 0.0
2017-Sep-04 16:30N 28°58' W 013°32'0 0.0
2017-Sep-04 16:00N 28°58' W 013°32'0 0.0
2017-Sep-04 15:31N 28°58' W 013°32'0 0.0
2017-Sep-04 15:00N 28°58' W 013°32'0 0.0
2017-Sep-04 14:30N 28°58' W 013°32'0 0.0
2017-Sep-04 14:00N 28°58' W 013°32'0 0.0
2017-Sep-04 13:31N 28°58' W 013°32'0 0.0
2017-Sep-04 13:01N 28°58' W 013°32'0 0.0
2017-Sep-04 12:31N 28°58' W 013°32'0 0.0
2017-Sep-04 12:01N 28°58' W 013°32'0 0.0
2017-Sep-04 11:30N 28°58' W 013°32'0 0.0
2017-Sep-04 11:00N 28°58' W 013°32'0 0.0
2017-Sep-04 10:31N 28°58' W 013°32'0 0.0
2017-Sep-04 10:00N 28°58' W 013°32'0 0.0
2017-Sep-04 09:30N 28°58' W 013°32'0 0.0
2017-Sep-04 09:01N 28°58' W 013°32'0 0.0
2017-Sep-04 08:29N 28°58' W 013°32'0 0.0
2017-Sep-04 08:00N 28°58' W 013°32'0 0.0
2017-Sep-04 07:30N 28°58' W 013°32'0 0.0
2017-Sep-04 07:01N 28°58' W 013°32'0 0.0
2017-Sep-04 06:30N 28°58' W 013°32'0 0.0
2017-Sep-03 07:06N 28°58' W 013°32'0 0.0
2017-Sep-02 08:44N 28°58' W 013°32'0 0.0
2017-Sep-02 08:30N 28°58' W 013°32'0 0.0
2017-Sep-02 08:00N 28°58' W 013°32'0 0.0
2017-Sep-02 07:30N 28°58' W 013°32'0 0.0
2017-Sep-02 07:00N 28°58' W 013°32'0 0.0
2017-Sep-02 06:30N 28°58' W 013°32'0 0.0
2017-Sep-02 06:00N 28°58' W 013°32'0 0.0
2017-Sep-02 05:30N 28°58' W 013°32'0 0.0
2017-Sep-02 05:00N 28°58' W 013°32'0 0.0
2017-Sep-02 04:29N 28°58' W 013°32'0 0.0
2017-Sep-02 04:00N 28°58' W 013°32'0 0.0
2017-Sep-02 03:29N 28°58' W 013°32'0 0.0
2017-Sep-02 02:59N 28°58' W 013°32'4 7.5
2017-Sep-02 02:30N 28°55' W 013°33'5 9.5
2017-Sep-02 02:00N 28°50' W 013°36'47 9.0
2017-Sep-01 20:47N 28°08' W 013°58'  
Track history (hours):
 
Tides and Currents Weather Stations Pressure Air Temp Water Temp Dewpoint Dewpoint Depression Visibility Wind Speed Wind Dir Waves Ship Positions

Cima De Oro

Last reported at 2017-Sep-07 20:36 UTC. Time now 2017-Sep-20 18:28 UTC.
Position N 27°51' W 015°06'.
Warning: this ship's position is 12 days out of date.

Length 32 m; draft 3.3 m.

Type: Fishing. MMSI: 224074180.

Date/timePositionNaut miles runAvg speedWind from/ knotsBaromVisibWave heightAir tempDewpointWater temp
2017-Sep-07 20:36N 27°51' W 015°06'0 5.3
2017-Sep-07 20:30N 27°50' W 015°06'3 5.5
2017-Sep-07 20:00N 27°49' W 015°09'2 3.4
2017-Sep-07 19:29N 27°48' W 015°11'3 5.2
2017-Sep-07 18:55N 27°46' W 015°13'2 5.5
2017-Sep-07 18:28N 27°45' W 015°16'26 0.6
2017-Sep-05 22:57N 27°42' W 015°45'1 1.1
2017-Sep-05 22:13N 27°41' W 015°44'0 1.1
2017-Sep-05 21:59N 27°41' W 015°44'3 0.8
2017-Sep-05 18:16N 27°43' W 015°42'20 6.2
2017-Sep-05 15:03N 27°51' W 015°21'110.5
2017-Sep-05 15:00N 27°51' W 015°20'5 9.9
2017-Sep-05 14:30N 27°54' W 015°16'5 9.3
2017-Sep-05 14:00N 27°57' W 015°12'5 9.0
2017-Sep-05 13:30N 27°60' W 015°08'5 9.0
2017-Sep-05 13:00N 28°03' W 015°04'4 8.8
2017-Sep-05 12:30N 28°05' W 014°60'4 8.7
2017-Sep-05 12:00N 28°08' W 014°56'5 8.9
2017-Sep-05 11:30N 28°11' W 014°52'4 9.0
2017-Sep-05 11:00N 28°13' W 014°48'4 8.9
2017-Sep-05 10:30N 28°16' W 014°44'5 9.2
2017-Sep-05 10:00N 28°19' W 014°40'5 9.2
2017-Sep-05 09:30N 28°22' W 014°36'5 8.8
2017-Sep-05 08:58N 28°25' W 014°31'4 8.6
2017-Sep-05 08:27N 28°27' W 014°27'4 8.8
2017-Sep-05 08:00N 28°30' W 014°24'4 8.6
2017-Sep-05 07:30N 28°32' W 014°20'4 8.7
2017-Sep-05 07:00N 28°35' W 014°16'5 9.0
2017-Sep-05 06:29N 28°38' W 014°12'4 9.2
2017-Sep-05 06:00N 28°41' W 014°08'5 9.4
2017-Sep-05 05:30N 28°43' W 014°03'5 9.8
2017-Sep-05 05:01N 28°46' W 013°59'5 9.7
2017-Sep-05 04:30N 28°48' W 013°54'5 9.3
2017-Sep-05 04:00N 28°49' W 013°49'5 9.3
2017-Sep-05 03:30N 28°51' W 013°44'5 9.4
2017-Sep-05 03:00N 28°53' W 013°39'2 4.1
2017-Sep-05 02:30N 28°54' W 013°37'0 0.0
2017-Sep-05 02:00N 28°54' W 013°37'0 0.0
2017-Sep-05 01:30N 28°54' W 013°37'0 0.1
2017-Sep-05 01:00N 28°54' W 013°37'0 0.0
2017-Sep-05 00:30N 28°54' W 013°37'0 0.0
2017-Sep-05 00:00N 28°54' W 013°37'0 0.0
2017-Sep-04 23:30N 28°54' W 013°37'0 0.0
2017-Sep-04 23:00N 28°54' W 013°37'0 0.0
2017-Sep-04 22:30N 28°54' W 013°37'0 0.0
2017-Sep-04 22:00N 28°54' W 013°37'0 0.0
2017-Sep-04 21:30N 28°54' W 013°37'0 0.0
2017-Sep-04 21:00N 28°54' W 013°37'0 0.3
2017-Sep-04 20:31N 28°54' W 013°37'0 0.2
2017-Sep-04 20:00N 28°54' W 013°37'3 6.1
2017-Sep-04 19:30N 28°56' W 013°34'3 5.0
2017-Sep-04 19:01N 28°58' W 013°32'0 0.0
2017-Sep-04 18:30N 28°58' W 013°32'0 0.0
2017-Sep-04 18:01N 28°58' W 013°32'0 0.0
2017-Sep-04 17:30N 28°58' W 013°32'0 0.0
2017-Sep-04 17:01N 28°58' W 013°32'0 0.0
2017-Sep-04 16:30N 28°58' W 013°32'0 0.0
2017-Sep-04 16:00N 28°58' W 013°32'0 0.0
2017-Sep-04 15:31N 28°58' W 013°32'0 0.0
2017-Sep-04 15:00N 28°58' W 013°32'0 0.0
2017-Sep-04 14:30N 28°58' W 013°32'0 0.0
2017-Sep-04 14:00N 28°58' W 013°32'0 0.0
2017-Sep-04 13:31N 28°58' W 013°32'0 0.0
2017-Sep-04 13:01N 28°58' W 013°32'0 0.0
2017-Sep-04 12:31N 28°58' W 013°32'0 0.0
2017-Sep-04 12:01N 28°58' W 013°32'0 0.0
2017-Sep-04 11:30N 28°58' W 013°32'0 0.0
2017-Sep-04 11:00N 28°58' W 013°32'0 0.0
2017-Sep-04 10:31N 28°58' W 013°32'0 0.0
2017-Sep-04 10:00N 28°58' W 013°32'0 0.0
2017-Sep-04 09:30N 28°58' W 013°32'0 0.0
2017-Sep-04 09:01N 28°58' W 013°32'0 0.0
2017-Sep-04 08:29N 28°58' W 013°32'0 0.0
2017-Sep-04 08:00N 28°58' W 013°32'0 0.0
2017-Sep-04 07:30N 28°58' W 013°32'0 0.0
2017-Sep-04 07:01N 28°58' W 013°32'0 0.0
2017-Sep-04 06:30N 28°58' W 013°32'0 0.0
2017-Sep-03 07:06N 28°58' W 013°32'0 0.0
2017-Sep-02 08:44N 28°58' W 013°32'0 0.0
2017-Sep-02 08:30N 28°58' W 013°32'0 0.0
2017-Sep-02 08:00N 28°58' W 013°32'0 0.0
2017-Sep-02 07:30N 28°58' W 013°32'0 0.0
2017-Sep-02 07:00N 28°58' W 013°32'0 0.0
2017-Sep-02 06:30N 28°58' W 013°32'0 0.0
2017-Sep-02 06:00N 28°58' W 013°32'0 0.0
2017-Sep-02 05:30N 28°58' W 013°32'0 0.0
2017-Sep-02 05:00N 28°58' W 013°32'0 0.0
2017-Sep-02 04:29N 28°58' W 013°32'0 0.0
2017-Sep-02 04:00N 28°58' W 013°32'0 0.0
2017-Sep-02 03:29N 28°58' W 013°32'0 0.0
2017-Sep-02 02:59N 28°58' W 013°32'4 7.5
2017-Sep-02 02:30N 28°55' W 013°33'5 9.5
2017-Sep-02 02:00N 28°50' W 013°36'47 9.0
2017-Sep-01 20:47N 28°08' W 013°58'  

Dump ship's entire track history